Time;durP1;ratioP1;P1;durP2;ratioP2;P2;SDS_P1;SDS_P2;PMS_P1;PMS_P2;Temp;Humidity;BMP_temperature;BMP_pressure;BME280_temperature;BME280_humidity;BME280_pressure;Samples;Min_cycle;Max_cycle;Signal;HPM_P1;HPM_P2
2021/11/21 00:00:24;;;;;;;0.10;0.10;;;;;;;;;;6005335;23;20020;-92
2021/11/21 00:02:50;;;;;;;0.10;0.10;;;;;;;;;;6005590;23;20016;-92
2021/11/21 00:05:16;;;;;;;0.13;0.13;;;;;;;;;;6005204;23;20023;-92
2021/11/21 00:07:42;;;;;;;0.10;0.10;;;;;;;;;;6004664;23;20107;-93
2021/11/21 00:10:08;;;;;;;0.10;0.10;;;;;;;;;;6005197;23;20155;-91
2021/11/21 00:12:34;;;;;;;0.10;0.10;;;;;;;;;;6004900;23;20020;-92
2021/11/21 00:15:00;;;;;;;0.10;0.10;;;;;;;;;;6004947;23;20020;-91
2021/11/21 00:17:26;;;;;;;0.10;0.10;;;;;;;;;;6005181;23;20024;-92
2021/11/21 00:19:54;;;;;;;0.10;0.10;;;;;;;;;;5981856;24;20012;-91
2021/11/21 00:22:20;;;;;;;0.10;0.10;;;;;;;;;;5981564;24;20027;-92
2021/11/21 00:24:46;;;;;;;0.10;0.10;;;;;;;;;;6005066;23;20012;-92
2021/11/21 00:27:12;;;;;;;0.10;0.10;;;;;;;;;;5981646;24;20020;-92
2021/11/21 00:29:38;;;;;;;0.10;0.10;;;;;;;;;;6005157;23;20024;-91
2021/11/21 00:32:04;;;;;;;0.10;0.10;;;;;;;;;;5981470;24;20031;-92
2021/11/21 00:34:30;;;;;;;0.10;0.10;;;;;;;;;;5981673;24;20017;-92
2021/11/21 00:36:56;;;;;;;0.10;0.10;;;;;;;;;;5981188;24;20166;-90
2021/11/21 00:39:22;;;;;;;0.10;0.10;;;;;;;;;;5980955;24;20446;-90
2021/11/21 00:41:48;;;;;;;0.10;0.10;;;;;;;;;;5980881;24;20048;-91
2021/11/21 00:44:14;;;;;;;0.10;0.10;;;;;;;;;;5980775;24;20466;-90
2021/11/21 00:46:41;;;;;;;0.10;0.10;;;;;;;;;;6004712;23;20020;-90
2021/11/21 00:49:13;;;;;;;0.10;0.10;;;;;;;;;;5981076;24;20447;-91
2021/11/21 00:51:39;;;;;;;0.10;0.10;;;;;;;;;;6004506;23;20012;-92
2021/11/21 00:54:10;;;;;;;0.10;0.10;;;;;;;;;;6004789;23;20023;-91
2021/11/21 00:56:38;;;;;;;0.20;0.20;;;;;;;;;;6004807;23;20065;-92
2021/11/21 00:59:04;;;;;;;0.10;0.10;;;;;;;;;;6004424;23;20459;-93
2021/11/21 01:01:30;;;;;;;0.10;0.10;;;;;;;;;;6004689;23;20081;-93
2021/11/21 01:03:56;;;;;;;0.10;0.10;;;;;;;;;;6004253;23;20391;-92
2021/11/21 01:06:23;;;;;;;0.10;0.10;;;;;;;;;;6004356;23;20017;-92
2021/11/21 01:08:49;;;;;;;0.20;0.20;;;;;;;;;;6004771;23;20384;-92
2021/11/21 01:11:15;;;;;;;0.10;0.10;;;;;;;;;;6004595;23;20199;-92
2021/11/21 01:13:41;;;;;;;0.10;0.10;;;;;;;;;;6004856;23;20077;-92
2021/11/21 01:16:09;;;;;;;0.10;0.10;;;;;;;;;;6004313;23;20020;-92
2021/11/21 01:18:36;;;;;;;0.10;0.10;;;;;;;;;;5980951;24;20059;-92
2021/11/21 01:21:02;;;;;;;0.10;0.10;;;;;;;;;;6004590;23;20016;-92
2021/11/21 01:23:28;;;;;;;0.10;0.10;;;;;;;;;;5980616;24;20012;-92
2021/11/21 01:25:54;;;;;;;0.10;0.10;;;;;;;;;;6004674;23;20088;-92
2021/11/21 01:28:20;;;;;;;0.10;0.10;;;;;;;;;;5982279;24;20024;-92
2021/11/21 01:30:46;;;;;;;0.10;0.10;;;;;;;;;;5983970;24;20048;-92
2021/11/21 01:33:12;;;;;;;0.10;0.10;;;;;;;;;;5984084;24;20024;-92
2021/11/21 01:35:38;;;;;;;0.10;0.10;;;;;;;;;;6007580;23;20016;-91
2021/11/21 01:38:04;;;;;;;0.10;0.10;;;;;;;;;;5983866;24;20212;-92
2021/11/21 01:40:30;;;;;;;0.10;0.10;;;;;;;;;;6006674;23;20012;-92
2021/11/21 01:42:56;;;;;;;0.10;0.10;;;;;;;;;;6007180;23;20108;-91
2021/11/21 01:45:22;;;;;;;0.10;0.10;;;;;;;;;;5983618;24;20016;-92
2021/11/21 01:47:49;;;;;;;0.10;0.10;;;;;;;;;;6007180;23;20404;-92
2021/11/21 01:50:16;;;;;;;0.10;0.10;;;;;;;;;;5983624;24;20020;-92
2021/11/21 01:52:42;;;;;;;0.10;0.10;;;;;;;;;;6007253;23;20106;-91
2021/11/21 01:55:09;;;;;;;0.10;0.10;;;;;;;;;;6007637;23;20031;-90
2021/11/21 01:57:35;;;;;;;0.10;0.10;;;;;;;;;;5983875;24;20048;-93
2021/11/21 02:00:02;;;;;;;0.10;0.10;;;;;;;;;;6007535;23;20075;-92
2021/11/21 02:02:29;;;;;;;0.10;0.10;;;;;;;;;;6007474;23;20421;-92
2021/11/21 02:04:55;;;;;;;0.10;0.10;;;;;;;;;;6007906;23;20073;-93
2021/11/21 02:07:21;;;;;;;0.10;0.10;;;;;;;;;;6007550;23;20020;-93
2021/11/21 02:09:47;;;;;;;0.10;0.10;;;;;;;;;;5984115;24;20024;-92
2021/11/21 02:12:14;;;;;;;0.10;0.10;;;;;;;;;;5983820;24;20044;-93
2021/11/21 02:14:40;;;;;;;0.10;0.10;;;;;;;;;;6007442;23;20027;-92
2021/11/21 02:17:06;;;;;;;0.10;0.10;;;;;;;;;;5983916;24;20028;-93
2021/11/21 02:19:32;;;;;;;0.10;0.10;;;;;;;;;;5984060;24;20016;-92
2021/11/21 02:21:58;;;;;;;0.10;0.10;;;;;;;;;;6007078;23;20046;-92
2021/11/21 02:24:24;;;;;;;0.57;0.30;;;;;;;;;;6007377;23;20288;-92
2021/11/21 02:26:50;;;;;;;0.22;0.22;;;;;;;;;;6007714;23;20447;-94
2021/11/21 02:29:16;;;;;;;0.10;0.10;;;;;;;;;;6007491;23;20075;-94
2021/11/21 02:31:42;;;;;;;0.10;0.10;;;;;;;;;;6007338;23;20080;-91
2021/11/21 02:34:08;;;;;;;0.10;0.10;;;;;;;;;;6007492;23;20380;-93
2021/11/21 02:36:34;;;;;;;0.10;0.10;;;;;;;;;;6007111;23;20076;-91
2021/11/21 02:39:00;;;;;;;0.10;0.10;;;;;;;;;;6007309;23;20087;-91
2021/11/21 02:44:59;;;;;;;0.15;0.15;;;;;;;;;;5957370;24;20027;-93
2021/11/21 02:47:31;;;;;;;0.10;0.10;;;;;;;;;;5954652;24;20016;-93
2021/11/21 02:49:57;;;;;;;;;;;;;;;;;;5955142;24;20021;-93
2021/11/21 02:52:23;;;;;;;0.10;0.10;;;;;;;;;;5931524;24;19922;-92
2021/11/21 02:54:51;;;;;;;0.10;0.10;;;;;;;;;;5954255;24;20024;-91
2021/11/21 02:57:17;;;;;;;0.10;0.10;;;;;;;;;;5931018;24;20017;-91
2021/11/21 02:59:43;;;;;;;0.10;0.10;;;;;;;;;;5954299;24;20013;-92
2021/11/21 03:02:09;;;;;;;0.20;0.20;;;;;;;;;;5954188;24;20059;-92
2021/11/21 03:04:35;;;;;;;0.10;0.10;;;;;;;;;;5930865;24;20371;-92
2021/11/21 03:07:01;;;;;;;0.10;0.10;;;;;;;;;;5954145;24;20031;-95
2021/11/21 03:09:27;;;;;;;0.10;0.10;;;;;;;;;;5954538;24;20017;-93
2021/11/21 03:11:53;;;;;;;0.10;0.10;;;;;;;;;;5953866;24;20023;-92
2021/11/21 03:14:19;;;;;;;0.10;0.10;;;;;;;;;;5953954;24;20076;-93
2021/11/21 03:16:49;;;;;;;0.10;0.10;;;;;;;;;;5931009;24;20423;-94
2021/11/21 03:19:15;;;;;;;0.10;0.10;;;;;;;;;;5954460;24;20388;-92
2021/11/21 03:21:41;;;;;;;0.10;0.10;;;;;;;;;;5954124;24;20527;-91
2021/11/21 03:24:08;;;;;;;0.10;0.10;;;;;;;;;;5954416;24;20115;-92
2021/11/21 03:26:33;;;;;;;0.10;0.10;;;;;;;;;;5953840;24;20017;-93
2021/11/21 03:28:59;;;;;;;0.10;0.10;;;;;;;;;;5954423;24;20077;-93
2021/11/21 03:31:26;;;;;;;0.10;0.10;;;;;;;;;;5954346;24;20020;-92
2021/11/21 03:33:52;;;;;;;0.10;0.10;;;;;;;;;;5931306;24;20017;-92
2021/11/21 03:36:17;;;;;;;0.10;0.10;;;;;;;;;;5930931;24;20478;-94
2021/11/21 03:38:45;;;;;;;0.10;0.10;;;;;;;;;;5953769;24;20024;-95
2021/11/21 03:41:11;;;;;;;0.10;0.10;;;;;;;;;;5953931;24;20020;-93
2021/11/21 03:43:37;;;;;;;0.10;0.10;;;;;;;;;;5966398;24;20068;-92
2021/11/21 03:46:03;;;;;;;0.15;0.15;;;;;;;;;;5981612;24;20654;-92
2021/11/21 03:48:31;;;;;;;0.10;0.10;;;;;;;;;;6004935;23;20024;-93
2021/11/21 03:50:57;;;;;;;0.10;0.10;;;;;;;;;;6005055;23;20029;-93
2021/11/21 03:53:23;;;;;;;0.10;0.10;;;;;;;;;;6005224;23;20023;-94
2021/11/21 03:55:49;;;;;;;0.10;0.10;;;;;;;;;;6004719;23;20016;-93
2021/11/21 03:58:17;;;;;;;0.10;0.10;;;;;;;;;;5981349;24;20016;-92
2021/11/21 04:00:45;;;;;;;0.10;0.10;;;;;;;;;;6005287;23;20016;-93
2021/11/21 04:03:11;;;;;;;0.10;0.10;;;;;;;;;;6004896;23;20017;-94
2021/11/21 04:05:37;;;;;;;0.10;0.10;;;;;;;;;;6005278;23;20076;-94
2021/11/21 04:08:03;;;;;;;0.10;0.10;;;;;;;;;;6004911;23;20027;-93
2021/11/21 04:10:30;;;;;;;0.10;0.10;;;;;;;;;;6005282;23;20426;-93
2021/11/21 04:12:56;;;;;;;0.10;0.10;;;;;;;;;;6004669;23;20099;-93
2021/11/21 04:15:22;;;;;;;0.10;0.10;;;;;;;;;;6004682;23;20427;-94
2021/11/21 04:17:48;;;;;;;0.10;0.10;;;;;;;;;;6004346;23;20342;-92
2021/11/21 04:20:14;;;;;;;0.10;0.10;;;;;;;;;;6004866;23;20391;-94
2021/11/21 04:22:40;;;;;;;0.10;0.10;;;;;;;;;;6005108;23;20061;-92
2021/11/21 04:25:07;;;;;;;0.10;0.10;;;;;;;;;;6005022;23;20023;-93
2021/11/21 04:27:34;;;;;;;0.10;0.10;;;;;;;;;;6004649;23;20427;-93
2021/11/21 04:30:00;;;;;;;0.10;0.10;;;;;;;;;;5981444;24;20027;-91
2021/11/21 04:32:29;;;;;;;0.10;0.10;;;;;;;;;;6005160;23;20086;-94
2021/11/21 04:34:55;;;;;;;0.10;0.10;;;;;;;;;;6004477;23;20068;-92
2021/11/21 04:37:21;;;;;;;0.10;0.10;;;;;;;;;;6004985;23;20069;-93
2021/11/21 04:39:47;;;;;;;0.10;0.10;;;;;;;;;;6004946;23;20012;-92
2021/11/21 04:42:14;;;;;;;0.10;0.10;;;;;;;;;;6005053;23;20023;-93
2021/11/21 04:44:40;;;;;;;0.10;0.10;;;;;;;;;;6004285;23;20020;-95
2021/11/21 04:47:06;;;;;;;0.10;0.10;;;;;;;;;;6004700;23;20039;-92
2021/11/21 04:49:32;;;;;;;0.10;0.10;;;;;;;;;;6004836;23;20016;-94
2021/11/21 04:51:58;;;;;;;0.10;0.10;;;;;;;;;;6004989;23;20048;-93
2021/11/21 04:54:26;;;;;;;0.10;0.10;;;;;;;;;;6004983;23;20016;-94
2021/11/21 04:56:52;;;;;;;0.10;0.10;;;;;;;;;;5981256;24;20028;-93
2021/11/21 04:59:18;;;;;;;0.10;0.10;;;;;;;;;;6004686;23;20058;-95
2021/11/21 05:01:44;;;;;;;0.10;0.10;;;;;;;;;;6005042;23;20016;-96
2021/11/21 05:04:10;;;;;;;0.10;0.10;;;;;;;;;;6004099;23;20019;-92
2021/11/21 05:06:36;;;;;;;0.10;0.10;;;;;;;;;;6004700;23;20047;-93
2021/11/21 05:09:04;;;;;;;0.10;0.10;;;;;;;;;;5981509;24;20020;-94
2021/11/21 05:11:31;;;;;;;0.10;0.10;;;;;;;;;;6004146;23;20080;-94
2021/11/21 05:13:57;;;;;;;0.10;0.10;;;;;;;;;;5981077;24;20055;-96
2021/11/21 05:16:23;;;;;;;0.10;0.10;;;;;;;;;;6004301;23;20020;-94
2021/11/21 05:18:49;;;;;;;0.10;0.10;;;;;;;;;;6004456;23;20024;-96
2021/11/21 05:21:21;;;;;;;0.10;0.10;;;;;;;;;;6008941;23;20316;-95
2021/11/21 05:23:57;;;;;;;0.10;0.10;;;;;;;;;;5985293;24;20017;-96
2021/11/21 05:26:24;;;;;;;0.10;0.10;;;;;;;;;;6006580;23;20438;-96
2021/11/21 05:29:06;;;;;;;0.10;0.10;;;;;;;;;;6006690;23;20047;-96
2021/11/21 05:31:51;;;;;;;0.10;0.10;;;;;;;;;;5983942;24;20019;-95
2021/11/21 05:34:34;;;;;;;;;;;;;;;;;;;;;
2021/11/21 05:37:10;;;;;;;0.10;0.10;;;;;;;;;;6009005;23;20024;-96
2021/11/21 05:39:41;;;;;;;0.10;0.10;;;;;;;;;;6004935;23;20016;-94
2021/11/21 05:42:07;;;;;;;0.10;0.10;;;;;;;;;;6007065;23;20020;-93
2021/11/21 05:44:33;;;;;;;0.10;0.10;;;;;;;;;;6005491;23;20017;-96
2021/11/21 05:46:59;;;;;;;0.10;0.10;;;;;;;;;;6006998;23;20016;-95
2021/11/21 05:49:25;;;;;;;0.10;0.10;;;;;;;;;;6005849;23;20012;-95
2021/11/21 05:51:51;;;;;;;0.10;0.10;;;;;;;;;;6005241;23;20012;-93
2021/11/21 05:54:17;;;;;;;0.10;0.10;;;;;;;;;;6005163;23;20016;-93
2021/11/21 05:56:43;;;;;;;0.10;0.10;;;;;;;;;;6006074;23;20099;-95
2021/11/21 05:59:10;;;;;;;0.10;0.10;;;;;;;;;;6005214;23;20516;-96
2021/11/21 06:01:37;;;;;;;0.10;0.10;;;;;;;;;;6005410;23;20019;-95
2021/11/21 06:04:03;;;;;;;0.10;0.10;;;;;;;;;;6005215;23;20023;-96
2021/11/21 06:06:30;;;;;;;0.10;0.10;;;;;;;;;;5981163;24;20024;-95
2021/11/21 06:08:56;;;;;;;0.10;0.10;;;;;;;;;;6004338;23;20020;-96
2021/11/21 06:11:22;;;;;;;0.10;0.10;;;;;;;;;;6004457;23;20020;-96
2021/11/21 06:13:48;;;;;;;0.10;0.10;;;;;;;;;;6004829;23;20434;-94
2021/11/21 06:16:14;;;;;;;0.10;0.10;;;;;;;;;;6007188;23;20072;-92
2021/11/21 06:18:42;;;;;;;0.10;0.10;;;;;;;;;;6009052;23;20023;-92
2021/11/21 06:21:23;;;;;;;0.10;0.10;;;;;;;;;;6010000;23;20016;-95
2021/11/21 06:23:51;;;;;;;0.10;0.10;;;;;;;;;;6009894;23;20092;-96
2021/11/21 06:26:29;;;;;;;0.10;0.10;;;;;;;;;;6009159;23;20012;-96
2021/11/21 06:28:58;;;;;;;0.10;0.10;;;;;;;;;;6011337;23;20020;-94
2021/11/21 06:31:24;;;;;;;0.10;0.10;;;;;;;;;;5982726;24;20012;-92
2021/11/21 06:33:50;;;;;;;0.10;0.10;;;;;;;;;;6008542;23;20049;-94
2021/11/21 06:36:16;;;;;;;0.10;0.10;;;;;;;;;;6006754;23;20094;-92
2021/11/21 06:38:42;;;;;;;0.10;0.10;;;;;;;;;;6006469;23;20469;-92
2021/11/21 06:41:08;;;;;;;0.10;0.10;;;;;;;;;;6006088;23;20016;-92
2021/11/21 06:43:34;;;;;;;0.10;0.10;;;;;;;;;;6006313;23;20016;-93
2021/11/21 06:46:00;;;;;;;0.10;0.10;;;;;;;;;;5982458;24;20016;-93
2021/11/21 06:48:26;;;;;;;0.10;0.10;;;;;;;;;;5982683;24;20399;-92
2021/11/21 06:50:53;;;;;;;0.10;0.10;;;;;;;;;;6006329;23;20099;-93
2021/11/21 06:53:19;;;;;;;0.10;0.10;;;;;;;;;;6005623;23;20028;-93
2021/11/21 06:55:46;;;;;;;0.10;0.10;;;;;;;;;;6005719;23;20463;-93
2021/11/21 06:58:12;;;;;;;0.10;0.10;;;;;;;;;;6005821;23;20477;-92
2021/11/21 07:00:37;;;;;;;0.10;0.10;;;;;;;;;;6006341;23;20105;-94
2021/11/21 07:03:05;;;;;;;0.10;0.10;;;;;;;;;;6005941;23;20012;-93
2021/11/21 07:05:31;;;;;;;0.10;0.10;;;;;;;;;;5982291;24;20016;-93
2021/11/21 07:07:58;;;;;;;0.10;0.10;;;;;;;;;;6006030;23;20020;-93
2021/11/21 07:10:24;;;;;;;0.10;0.10;;;;;;;;;;5982271;24;20422;-91
2021/11/21 07:12:50;;;;;;;0.10;0.10;;;;;;;;;;6005954;23;20027;-93
2021/11/21 07:15:16;;;;;;;0.10;0.10;;;;;;;;;;6005695;23;20496;-94
2021/11/21 07:17:42;;;;;;;0.10;0.10;;;;;;;;;;6005229;23;20199;-94
2021/11/21 07:20:15;;;;;;;0.10;0.10;;;;;;;;;;5982632;24;20023;-93
2021/11/21 07:22:50;;;;;;;0.10;0.10;;;;;;;;;;6006134;23;20372;-95
2021/11/21 07:25:16;;;;;;;0.10;0.10;;;;;;;;;;6005948;23;20076;-95
2021/11/21 07:27:42;;;;;;;0.10;0.10;;;;;;;;;;6005778;23;20069;-93
2021/11/21 07:30:09;;;;;;;0.10;0.10;;;;;;;;;;6005590;23;20016;-93
2021/11/21 07:32:35;;;;;;;0.10;0.10;;;;;;;;;;6005431;23;20020;-94
2021/11/21 07:35:01;;;;;;;0.10;0.10;;;;;;;;;;6004770;23;20324;-89
2021/11/21 07:37:27;;;;;;;0.10;0.10;;;;;;;;;;6004461;23;20074;-90
2021/11/21 07:39:53;;;;;;;0.10;0.10;;;;;;;;;;5981152;24;20020;-88
2021/11/21 07:42:20;;;;;;;0.10;0.10;;;;;;;;;;5980777;24;20470;-88
2021/11/21 07:44:46;;;;;;;0.10;0.10;;;;;;;;;;6004037;23;20035;-88
2021/11/21 07:47:12;;;;;;;0.10;0.10;;;;;;;;;;5981202;24;20052;-93
2021/11/21 07:49:38;;;;;;;0.10;0.10;;;;;;;;;;5982447;24;20020;-93
2021/11/21 07:52:04;;;;;;;0.10;0.10;;;;;;;;;;5987556;24;20451;-93
2021/11/21 07:54:30;;;;;;;0.10;0.10;;;;;;;;;;6014293;23;20031;-92
2021/11/21 07:56:56;;;;;;;0.10;0.10;;;;;;;;;;5998235;23;20059;-91
2021/11/21 07:59:22;;;;;;;0.10;0.10;;;;;;;;;;6031302;23;20089;-91
2021/11/21 08:01:49;;;;;;;0.10;0.10;;;;;;;;;;6014343;23;20465;-93
2021/11/21 08:04:15;;;;;;;0.10;0.10;;;;;;;;;;6005395;23;20304;-92
2021/11/21 08:06:41;;;;;;;0.10;0.10;;;;;;;;;;6005182;23;20023;-92
2021/11/21 08:09:07;;;;;;;0.10;0.10;;;;;;;;;;5982128;24;20024;-93
2021/11/21 08:11:33;;;;;;;0.10;0.10;;;;;;;;;;6005281;23;20051;-93
2021/11/21 08:13:59;;;;;;;0.10;0.10;;;;;;;;;;5983204;24;20035;-94
2021/11/21 08:16:25;;;;;;;0.10;0.10;;;;;;;;;;6005667;23;20016;-93
2021/11/21 08:18:54;;;;;;;0.10;0.10;;;;;;;;;;6004640;23;20398;-96
2021/11/21 08:21:20;;;;;;;0.10;0.10;;;;;;;;;;5980937;24;20016;-92
2021/11/21 08:23:46;;;;;;;0.10;0.10;;;;;;;;;;6004740;23;20147;-94
2021/11/21 08:26:12;;;;;;;0.10;0.10;;;;;;;;;;6005623;23;20110;-93
2021/11/21 08:28:40;;;;;;;0.10;0.10;;;;;;;;;;6004288;23;20533;-94
2021/11/21 08:31:06;;;;;;;0.10;0.10;;;;;;;;;;6004927;23;20043;-92
2021/11/21 08:33:32;;;;;;;0.10;0.10;;;;;;;;;;6004273;23;20020;-90
2021/11/21 08:35:58;;;;;;;0.10;0.10;;;;;;;;;;6004457;23;20031;-88
2021/11/21 08:38:24;;;;;;;0.10;0.10;;;;;;;;;;6003775;23;20380;-90
2021/11/21 08:40:50;;;;;;;0.10;0.10;;;;;;;;;;5980647;24;20038;-89
2021/11/21 08:43:18;;;;;;;0.10;0.10;;;;;;;;;;6003833;23;20020;-94
2021/11/21 08:45:45;;;;;;;0.10;0.10;;;;;;;;;;6004237;23;20020;-88
2021/11/21 08:48:11;;;;;;;0.10;0.10;;;;;;;;;;5980079;24;20426;-88
2021/11/21 08:50:37;;;;;;;0.10;0.10;;;;;;;;;;6003757;23;20528;-87
2021/11/21 08:53:03;;;;;;;0.10;0.10;;;;;;;;;;5980175;24;20056;-86
2021/11/21 08:55:30;;;;;;;0.10;0.10;;;;;;;;;;5980347;24;20031;-88
2021/11/21 08:57:56;;;;;;;0.10;0.10;;;;;;;;;;5979882;24;20295;-87
2021/11/21 09:00:22;;;;;;;0.10;0.10;;;;;;;;;;5980311;24;20340;-89
2021/11/21 09:02:49;;;;;;;0.10;0.10;;;;;;;;;;6003532;23;20095;-89
2021/11/21 09:05:15;;;;;;;0.10;0.10;;;;;;;;;;5980324;24;20350;-92
2021/11/21 09:07:42;;;;;;;0.10;0.10;;;;;;;;;;5980086;24;20408;-87
2021/11/21 09:10:09;;;;;;;0.10;0.10;;;;;;;;;;6003366;23;20047;-88
2021/11/21 09:12:35;;;;;;;0.10;0.10;;;;;;;;;;5980180;24;20081;-89
2021/11/21 09:15:01;;;;;;;0.10;0.10;;;;;;;;;;5980187;24;20027;-91
2021/11/21 09:17:27;;;;;;;0.10;0.10;;;;;;;;;;6004055;23;20095;-90
2021/11/21 09:19:53;;;;;;;0.10;0.10;;;;;;;;;;6003773;23;20285;-90
2021/11/21 09:22:19;;;;;;;0.10;0.10;;;;;;;;;;5980044;24;20027;-88
2021/11/21 09:24:45;;;;;;;0.10;0.10;;;;;;;;;;5979660;24;20332;-88
2021/11/21 09:27:14;;;;;;;0.10;0.10;;;;;;;;;;5979639;24;20152;-88
2021/11/21 09:29:43;;;;;;;0.10;0.10;;;;;;;;;;6002794;23;20020;-87
2021/11/21 09:32:10;;;;;;;0.10;0.10;;;;;;;;;;5979512;24;20020;-87
2021/11/21 09:34:36;;;;;;;0.10;0.10;;;;;;;;;;5979486;24;20016;-87
2021/11/21 09:37:02;;;;;;;0.10;0.10;;;;;;;;;;6002982;23;20017;-93
2021/11/21 09:39:28;;;;;;;0.10;0.10;;;;;;;;;;6003053;23;20017;-86
2021/11/21 09:41:54;;;;;;;0.10;0.10;;;;;;;;;;5979441;24;20012;-86
2021/11/21 09:44:20;;;;;;;0.10;0.10;;;;;;;;;;5977690;24;20063;-88
2021/11/21 09:46:46;;;;;;;0.10;0.10;;;;;;;;;;5979436;24;20021;-89
2021/11/21 09:49:14;;;;;;;0.10;0.10;;;;;;;;;;6003161;23;20469;-88
2021/11/21 09:51:40;;;;;;;0.10;0.10;;;;;;;;;;5981050;24;20099;-88
2021/11/21 09:54:07;;;;;;;0.10;0.10;;;;;;;;;;6004862;23;20360;-88
2021/11/21 09:56:33;;;;;;;0.00;0.00;;;;;;;;;;6005034;23;20027;-89
2021/11/21 09:58:59;;;;;;;0.10;0.10;;;;;;;;;;5981219;24;20020;-89
2021/11/21 10:01:31;;;;;;;0.10;0.10;;;;;;;;;;5981102;24;20518;-89
2021/11/21 10:03:57;;;;;;;0.10;0.10;;;;;;;;;;5981106;24;20470;-87
2021/11/21 10:06:31;;;;;;;0.10;0.10;;;;;;;;;;6004205;23;20016;-87
2021/11/21 10:08:57;;;;;;;0.10;0.10;;;;;;;;;;5981070;24;20020;-88
2021/11/21 10:11:22;;;;;;;0.10;0.10;;;;;;;;;;5980909;24;20023;-87
2021/11/21 10:13:53;;;;;;;0.10;0.10;;;;;;;;;;6004592;23;20055;-89
2021/11/21 10:16:19;;;;;;;0.10;0.10;;;;;;;;;;6004685;23;20068;-90
2021/11/21 10:18:49;;;;;;;0.10;0.10;;;;;;;;;;5980947;24;20016;-87
2021/11/21 10:21:16;;;;;;;0.10;0.10;;;;;;;;;;5981236;24;20016;-88
2021/11/21 10:23:42;;;;;;;0.10;0.10;;;;;;;;;;5981007;24;20048;-88
2021/11/21 10:26:08;;;;;;;0.10;0.10;;;;;;;;;;5981007;24;20016;-86
2021/11/21 10:28:34;;;;;;;0.10;0.10;;;;;;;;;;5980850;24;20016;-87
2021/11/21 10:31:00;;;;;;;2.60;2.40;;;;;;;;;;5980957;24;20020;-87
2021/11/21 10:33:31;;;;;;;0.10;0.10;;;;;;;;;;5980801;24;20031;-87
2021/11/21 10:35:58;;;;;;;0.10;0.10;;;;;;;;;;5981038;24;20289;-87
2021/11/21 10:38:42;;;;;;;0.10;0.10;;;;;;;;;;5980586;24;20052;-87
2021/11/21 10:41:09;;;;;;;0.10;0.10;;;;;;;;;;5981092;24;20095;-89
2021/11/21 10:43:42;;;;;;;0.10;0.10;;;;;;;;;;5980839;24;20048;-87
2021/11/21 10:46:20;;;;;;;0.10;0.10;;;;;;;;;;5980812;24;20012;-86
2021/11/21 10:48:46;;;;;;;0.10;0.10;;;;;;;;;;5980889;24;20446;-87
2021/11/21 10:51:18;;;;;;;0.10;0.10;;;;;;;;;;5980797;24;20031;-87
2021/11/21 10:53:46;;;;;;;0.10;0.10;;;;;;;;;;5980913;24;20456;-86
2021/11/21 10:56:12;;;;;;;0.10;0.10;;;;;;;;;;6004180;23;20020;-86
2021/11/21 10:58:42;;;;;;;0.10;0.10;;;;;;;;;;6004019;23;20055;-86
2021/11/21 11:01:08;;;;;;;0.25;0.25;;;;;;;;;;6003777;23;20093;-87
2021/11/21 11:03:34;;;;;;;0.10;0.10;;;;;;;;;;5980856;24;20013;-86
2021/11/21 11:06:03;;;;;;;0.10;0.10;;;;;;;;;;6004255;23;20597;-87
2021/11/21 11:08:30;;;;;;;0.10;0.10;;;;;;;;;;6004034;23;20024;-87
2021/11/21 11:10:56;;;;;;;0.10;0.10;;;;;;;;;;6004026;23;20016;-87
2021/11/21 11:13:24;;;;;;;0.10;0.10;;;;;;;;;;5979717;24;20043;-86
2021/11/21 11:15:50;;;;;;;0.10;0.10;;;;;;;;;;6003621;23;20047;-86
2021/11/21 11:18:16;;;;;;;0.10;0.10;;;;;;;;;;6003681;23;20343;-87
2021/11/21 11:20:43;;;;;;;0.10;0.10;;;;;;;;;;5980553;24;20494;-86
2021/11/21 11:23:09;;;;;;;0.10;0.10;;;;;;;;;;5980649;24;20016;-86
2021/11/21 11:25:36;;;;;;;0.10;0.10;;;;;;;;;;5980465;24;20477;-86
2021/11/21 11:28:08;;;;;;;0.10;0.10;;;;;;;;;;6003855;23;20016;-85
2021/11/21 11:30:34;;;;;;;0.10;0.10;;;;;;;;;;5980566;24;20521;-86
2021/11/21 11:33:07;;;;;;;0.10;0.10;;;;;;;;;;5980269;24;20518;-86
2021/11/21 11:35:33;;;;;;;0.10;0.10;;;;;;;;;;5980294;24;20052;-86
2021/11/21 11:38:07;;;;;;;0.10;0.10;;;;;;;;;;5980083;24;20030;-86
2021/11/21 11:40:57;;;;;;;0.10;0.10;;;;;;;;;;5980390;24;20012;-86
2021/11/21 11:43:30;;;;;;;0.10;0.10;;;;;;;;;;5979960;24;20020;-86
2021/11/21 11:46:09;;;;;;;0.10;0.10;;;;;;;;;;5980385;24;20123;-86
2021/11/21 11:48:38;;;;;;;0.10;0.10;;;;;;;;;;5980162;24;20023;-86
2021/11/21 11:51:07;;;;;;;0.10;0.10;;;;;;;;;;5980301;24;20027;-87
2021/11/21 11:53:34;;;;;;;0.10;0.10;;;;;;;;;;5980219;24;20020;-86
2021/11/21 11:56:19;;;;;;;0.10;0.10;;;;;;;;;;6003587;23;20106;-86
2021/11/21 11:58:46;;;;;;;0.10;0.10;;;;;;;;;;5979987;24;20514;-86
2021/11/21 12:01:12;;;;;;;0.10;0.10;;;;;;;;;;5980218;24;20016;-86
2021/11/21 12:03:39;;;;;;;0.10;0.10;;;;;;;;;;5980424;24;20012;-86
2021/11/21 12:06:05;;;;;;;0.10;0.10;;;;;;;;;;5980226;24;20372;-86
2021/11/21 12:08:31;;;;;;;0.10;0.10;;;;;;;;;;5980147;24;20099;-87
2021/11/21 12:10:57;;;;;;;0.10;0.10;;;;;;;;;;5980251;24;20054;-87
2021/11/21 12:13:30;;;;;;;0.10;0.10;;;;;;;;;;5979811;24;20016;-87
2021/11/21 12:15:59;;;;;;;0.10;0.10;;;;;;;;;;5980212;24;20020;-87
2021/11/21 12:18:44;;;;;;;0.15;0.15;;;;;;;;;;5979866;24;20031;-87
2021/11/21 12:21:10;;;;;;;0.10;0.10;;;;;;;;;;5980286;24;20020;-89
2021/11/21 12:23:42;;;;;;;0.10;0.10;;;;;;;;;;5979988;24;20113;-87
2021/11/21 12:26:24;;;;;;;0.10;0.10;;;;;;;;;;5980305;24;20074;-86
2021/11/21 12:28:55;;;;;;;0.10;0.10;;;;;;;;;;5979946;24;20417;-86
2021/11/21 12:31:28;;;;;;;0.10;0.10;;;;;;;;;;5979895;24;20016;-86
2021/11/21 12:33:53;;;;;;;;;;;;;;;;;;6003528;23;20020;-86
2021/11/21 12:36:19;;;;;;;0.10;0.10;;;;;;;;;;5979565;24;19957;-87
2021/11/21 12:38:46;;;;;;;0.20;0.20;;;;;;;;;;6003315;23;20020;-86
2021/11/21 12:41:12;;;;;;;0.70;0.70;;;;;;;;;;5980674;24;20016;-87
2021/11/21 12:43:38;;;;;;;0.70;0.70;;;;;;;;;;5983390;24;20031;-86
2021/11/21 12:46:06;;;;;;;0.10;0.10;;;;;;;;;;6006425;23;20057;-86
2021/11/21 12:48:32;;;;;;;0.10;0.10;;;;;;;;;;6021087;23;20076;-87
2021/11/21 12:51:05;;;;;;;0.10;0.10;;;;;;;;;;5979561;24;20016;-86
2021/11/21 12:53:32;;;;;;;0.10;0.10;;;;;;;;;;5979818;24;20016;-87
2021/11/21 12:56:08;;;;;;;0.10;0.10;;;;;;;;;;6003268;23;20048;-84
2021/11/21 12:58:41;;;;;;;0.10;0.10;;;;;;;;;;5979612;24;20103;-85
2021/11/21 13:01:12;;;;;;;0.10;0.10;;;;;;;;;;6003258;23;20050;-88
2021/11/21 13:03:41;;;;;;;0.10;0.10;;;;;;;;;;5979732;24;20077;-89
2021/11/21 13:06:07;;;;;;;0.10;0.10;;;;;;;;;;6003344;23;20540;-87
2021/11/21 13:08:34;;;;;;;0.10;0.10;;;;;;;;;;5979473;24;20107;-87
2021/11/21 13:11:01;;;;;;;0.13;0.13;;;;;;;;;;5979783;24;20048;-87
2021/11/21 13:13:31;;;;;;;0.10;0.10;;;;;;;;;;5979804;24;20346;-85
2021/11/21 13:15:57;;;;;;;0.10;0.10;;;;;;;;;;5980326;24;20020;-91
2021/11/21 13:18:26;;;;;;;0.10;0.10;;;;;;;;;;6003439;23;20016;-91
2021/11/21 13:20:56;;;;;;;0.10;0.10;;;;;;;;;;5980439;24;20057;-91
2021/11/21 13:23:24;;;;;;;0.10;0.10;;;;;;;;;;5980078;24;20016;-91
2021/11/21 13:25:51;;;;;;;0.10;0.10;;;;;;;;;;6003244;23;20020;-90
2021/11/21 13:28:23;;;;;;;0.10;0.10;;;;;;;;;;5980214;24;20027;-91
2021/11/21 13:30:50;;;;;;;0.10;0.10;;;;;;;;;;5980318;24;20020;-92
2021/11/21 13:33:16;;;;;;;0.10;0.10;;;;;;;;;;5980632;24;20020;-92
2021/11/21 13:35:43;;;;;;;0.10;0.10;;;;;;;;;;6003509;23;20016;-91
2021/11/21 13:38:12;;;;;;;0.10;0.10;;;;;;;;;;6003392;23;20016;-92
2021/11/21 13:40:38;;;;;;;0.10;0.10;;;;;;;;;;6009029;23;20026;-94
2021/11/21 13:43:05;;;;;;;0.10;0.10;;;;;;;;;;6003082;23;20051;-92
2021/11/21 13:45:31;;;;;;;0.10;0.10;;;;;;;;;;6004092;23;20023;-91
2021/11/21 13:47:57;;;;;;;0.10;0.10;;;;;;;;;;6003882;23;20012;-90
2021/11/21 13:50:27;;;;;;;0.10;0.10;;;;;;;;;;5979683;24;20027;-87
2021/11/21 13:52:55;;;;;;;0.28;0.28;;;;;;;;;;5979357;24;20027;-88
2021/11/21 13:55:21;;;;;;;0.10;0.10;;;;;;;;;;5979411;24;20016;-87
2021/11/21 13:57:48;;;;;;;0.10;0.10;;;;;;;;;;6002484;23;20024;-87
2021/11/21 14:00:15;;;;;;;0.10;0.10;;;;;;;;;;6002955;23;20044;-86
2021/11/21 14:02:42;;;;;;;0.10;0.10;;;;;;;;;;5979361;24;20016;-87
2021/11/21 14:05:09;;;;;;;0.10;0.10;;;;;;;;;;5979508;24;20081;-88
2021/11/21 14:07:35;;;;;;;0.10;0.10;;;;;;;;;;5979438;24;20148;-88
2021/11/21 14:10:01;;;;;;;0.10;0.10;;;;;;;;;;5979473;24;20052;-86
2021/11/21 14:12:28;;;;;;;0.10;0.10;;;;;;;;;;5979480;24;20027;-88
2021/11/21 14:15:04;;;;;;;0.10;0.10;;;;;;;;;;5979379;24;20392;-88
2021/11/21 14:17:30;;;;;;;0.10;0.10;;;;;;;;;;5979167;24;20020;-87
2021/11/21 14:19:57;;;;;;;0.10;0.10;;;;;;;;;;5979547;24;20523;-88
2021/11/21 14:22:32;;;;;;;0.10;0.10;;;;;;;;;;5979188;24;20046;-88
2021/11/21 14:24:58;;;;;;;0.10;0.10;;;;;;;;;;5979079;24;20112;-88
2021/11/21 14:27:26;;;;;;;0.10;0.10;;;;;;;;;;5979506;24;20147;-89
2021/11/21 14:29:53;;;;;;;0.10;0.10;;;;;;;;;;6002597;23;20095;-88
2021/11/21 14:32:19;;;;;;;0.10;0.10;;;;;;;;;;6003087;23;20043;-88
2021/11/21 14:34:45;;;;;;;0.10;0.10;;;;;;;;;;5979458;24;20289;-88
2021/11/21 14:37:14;;;;;;;0.10;0.10;;;;;;;;;;6003976;23;20017;-88
2021/11/21 14:39:40;;;;;;;0.10;0.10;;;;;;;;;;5980996;24;20023;-88
2021/11/21 14:42:08;;;;;;;0.10;0.10;;;;;;;;;;6004284;23;20347;-88
2021/11/21 14:44:38;;;;;;;0.10;0.10;;;;;;;;;;6004251;23;20020;-87
2021/11/21 14:47:05;;;;;;;0.10;0.10;;;;;;;;;;5980915;24;20347;-89
2021/11/21 14:49:33;;;;;;;0.10;0.10;;;;;;;;;;6004471;23;20344;-89